sensor_id;sensor_type;location;lat;lon;timestamp;P1;durP1;ratioP1;P2;durP2;ratioP2
48522;SDS011;34315;50.150;11.070;2022-07-30T00:01:31;9.70;;;4.57;;
48522;SDS011;34315;50.150;11.070;2022-07-30T00:06:33;5.95;;;3.70;;
48522;SDS011;34315;50.150;11.070;2022-07-30T00:11:36;6.63;;;4.03;;
48522;SDS011;34315;50.150;11.070;2022-07-30T00:16:37;6.45;;;3.75;;
48522;SDS011;34315;50.150;11.070;2022-07-30T00:21:37;6.63;;;4.68;;
48522;SDS011;34315;50.150;11.070;2022-07-30T00:26:38;5.95;;;4.00;;
48522;SDS011;34315;50.150;11.070;2022-07-30T00:31:38;6.13;;;4.30;;
48522;SDS011;34315;50.150;11.070;2022-07-30T00:36:39;5.32;;;4.07;;
48522;SDS011;34315;50.150;11.070;2022-07-30T00:41:58;9.63;;;4.80;;
48522;SDS011;34315;50.150;11.070;2022-07-30T00:47:00;6.97;;;3.80;;
48522;SDS011;34315;50.150;11.070;2022-07-30T00:52:00;6.30;;;4.20;;
48522;SDS011;34315;50.150;11.070;2022-07-30T00:57:02;8.05;;;4.35;;
48522;SDS011;34315;50.150;11.070;2022-07-30T01:02:03;6.95;;;4.07;;
48522;SDS011;34315;50.150;11.070;2022-07-30T01:07:03;7.50;;;4.43;;
48522;SDS011;34315;50.150;11.070;2022-07-30T01:12:04;8.77;;;4.50;;
48522;SDS011;34315;50.150;11.070;2022-07-30T01:17:06;5.50;;;4.38;;
48522;SDS011;34315;50.150;11.070;2022-07-30T01:22:11;8.05;;;4.53;;
48522;SDS011;34315;50.150;11.070;2022-07-30T01:27:18;5.88;;;4.53;;
48522;SDS011;34315;50.150;11.070;2022-07-30T01:32:20;8.02;;;4.90;;
48522;SDS011;34315;50.150;11.070;2022-07-30T01:37:23;7.17;;;5.17;;
48522;SDS011;34315;50.150;11.070;2022-07-30T01:42:25;7.88;;;4.97;;
48522;SDS011;34315;50.150;11.070;2022-07-30T01:47:26;7.93;;;5.93;;
48522;SDS011;34315;50.150;11.070;2022-07-30T01:52:27;10.77;;;7.55;;
48522;SDS011;34315;50.150;11.070;2022-07-30T01:57:30;10.20;;;7.10;;
48522;SDS011;34315;50.150;11.070;2022-07-30T02:02:31;11.13;;;8.10;;
48522;SDS011;34315;50.150;11.070;2022-07-30T02:07:38;14.30;;;8.38;;
48522;SDS011;34315;50.150;11.070;2022-07-30T02:12:51;13.98;;;9.32;;
48522;SDS011;34315;50.150;11.070;2022-07-30T02:23:04;16.83;;;11.18;;
48522;SDS011;34315;50.150;11.070;2022-07-30T02:28:06;17.38;;;11.05;;
48522;SDS011;34315;50.150;11.070;2022-07-30T02:33:09;17.38;;;10.63;;
48522;SDS011;34315;50.150;11.070;2022-07-30T02:38:11;13.38;;;9.20;;
48522;SDS011;34315;50.150;11.070;2022-07-30T02:43:15;12.38;;;8.35;;
48522;SDS011;34315;50.150;11.070;2022-07-30T02:48:18;11.05;;;7.72;;
48522;SDS011;34315;50.150;11.070;2022-07-30T02:53:19;9.13;;;6.55;;
48522;SDS011;34315;50.150;11.070;2022-07-30T02:58:22;6.88;;;5.82;;
48522;SDS011;34315;50.150;11.070;2022-07-30T03:03:23;8.82;;;5.50;;
48522;SDS011;34315;50.150;11.070;2022-07-30T03:08:30;6.82;;;5.32;;
48522;SDS011;34315;50.150;11.070;2022-07-30T03:13:31;8.50;;;5.03;;
48522;SDS011;34315;50.150;11.070;2022-07-30T03:18:32;8.27;;;5.50;;
48522;SDS011;34315;50.150;11.070;2022-07-30T03:23:33;7.07;;;5.00;;
48522;SDS011;34315;50.150;11.070;2022-07-30T03:28:37;6.72;;;5.10;;
48522;SDS011;34315;50.150;11.070;2022-07-30T03:33:39;8.43;;;6.32;;
48522;SDS011;34315;50.150;11.070;2022-07-30T03:38:40;8.73;;;6.20;;
48522;SDS011;34315;50.150;11.070;2022-07-30T03:43:41;7.88;;;6.43;;
48522;SDS011;34315;50.150;11.070;2022-07-30T03:48:43;8.73;;;5.70;;
48522;SDS011;34315;50.150;11.070;2022-07-30T03:53:43;8.40;;;5.88;;
48522;SDS011;34315;50.150;11.070;2022-07-30T03:59:08;11.55;;;5.57;;
48522;SDS011;34315;50.150;11.070;2022-07-30T04:04:12;8.75;;;6.68;;
48522;SDS011;34315;50.150;11.070;2022-07-30T04:09:14;9.38;;;6.22;;
48522;SDS011;34315;50.150;11.070;2022-07-30T04:14:14;7.85;;;6.35;;
48522;SDS011;34315;50.150;11.070;2022-07-30T04:19:22;18.50;;;7.40;;
48522;SDS011;34315;50.150;11.070;2022-07-30T04:24:26;9.68;;;6.22;;
48522;SDS011;34315;50.150;11.070;2022-07-30T04:29:28;8.30;;;6.57;;
48522;SDS011;34315;50.150;11.070;2022-07-30T04:34:29;9.82;;;6.82;;
48522;SDS011;34315;50.150;11.070;2022-07-30T04:39:30;9.18;;;7.53;;
48522;SDS011;34315;50.150;11.070;2022-07-30T04:44:30;8.05;;;6.22;;
48522;SDS011;34315;50.150;11.070;2022-07-30T04:50:03;9.82;;;7.75;;
48522;SDS011;34315;50.150;11.070;2022-07-30T04:55:06;9.63;;;7.88;;
48522;SDS011;34315;50.150;11.070;2022-07-30T05:00:07;10.30;;;7.60;;
48522;SDS011;34315;50.150;11.070;2022-07-30T05:05:11;9.37;;;6.97;;
48522;SDS011;34315;50.150;11.070;2022-07-30T05:10:13;9.23;;;6.88;;
48522;SDS011;34315;50.150;11.070;2022-07-30T05:15:15;8.93;;;6.88;;
48522;SDS011;34315;50.150;11.070;2022-07-30T05:20:16;10.48;;;8.05;;
48522;SDS011;34315;50.150;11.070;2022-07-30T05:25:30;13.00;;;7.68;;
48522;SDS011;34315;50.150;11.070;2022-07-30T05:30:41;9.43;;;7.70;;
48522;SDS011;34315;50.150;11.070;2022-07-30T05:35:44;8.25;;;6.45;;
48522;SDS011;34315;50.150;11.070;2022-07-30T05:40:45;8.48;;;6.70;;
48522;SDS011;34315;50.150;11.070;2022-07-30T05:46:08;10.63;;;7.60;;
48522;SDS011;34315;50.150;11.070;2022-07-30T05:51:08;9.05;;;6.88;;
48522;SDS011;34315;50.150;11.070;2022-07-30T05:56:09;8.43;;;6.70;;
48522;SDS011;34315;50.150;11.070;2022-07-30T06:01:24;10.45;;;7.90;;
48522;SDS011;34315;50.150;11.070;2022-07-30T06:06:25;11.88;;;7.82;;
48522;SDS011;34315;50.150;11.070;2022-07-30T06:11:26;13.55;;;8.38;;
48522;SDS011;34315;50.150;11.070;2022-07-30T06:16:26;11.30;;;8.10;;
48522;SDS011;34315;50.150;11.070;2022-07-30T06:21:26;10.77;;;7.78;;
48522;SDS011;34315;50.150;11.070;2022-07-30T06:26:38;13.02;;;8.45;;
48522;SDS011;34315;50.150;11.070;2022-07-30T06:31:40;13.10;;;8.30;;
48522;SDS011;34315;50.150;11.070;2022-07-30T06:36:42;12.82;;;8.98;;
48522;SDS011;34315;50.150;11.070;2022-07-30T06:41:52;13.93;;;9.40;;
48522;SDS011;34315;50.150;11.070;2022-07-30T06:46:53;13.98;;;10.73;;
48522;SDS011;34315;50.150;11.070;2022-07-30T06:51:57;14.93;;;9.82;;
48522;SDS011;34315;50.150;11.070;2022-07-30T06:56:58;9.48;;;7.55;;
48522;SDS011;34315;50.150;11.070;2022-07-30T07:01:58;9.98;;;6.88;;
48522;SDS011;34315;50.150;11.070;2022-07-30T07:07:00;6.75;;;5.38;;
48522;SDS011;34315;50.150;11.070;2022-07-30T07:12:07;7.22;;;5.95;;
48522;SDS011;34315;50.150;11.070;2022-07-30T07:17:08;8.23;;;6.20;;
48522;SDS011;34315;50.150;11.070;2022-07-30T07:22:28;8.65;;;6.15;;
48522;SDS011;34315;50.150;11.070;2022-07-30T07:27:29;8.00;;;6.00;;
48522;SDS011;34315;50.150;11.070;2022-07-30T07:32:33;8.63;;;6.65;;
48522;SDS011;34315;50.150;11.070;2022-07-30T07:37:34;7.75;;;6.55;;
48522;SDS011;34315;50.150;11.070;2022-07-30T07:42:36;8.75;;;6.07;;
48522;SDS011;34315;50.150;11.070;2022-07-30T07:47:45;7.97;;;5.75;;
48522;SDS011;34315;50.150;11.070;2022-07-30T07:52:51;7.60;;;6.57;;
48522;SDS011;34315;50.150;11.070;2022-07-30T07:57:52;7.60;;;5.80;;
48522;SDS011;34315;50.150;11.070;2022-07-30T08:02:53;6.40;;;5.10;;
48522;SDS011;34315;50.150;11.070;2022-07-30T08:07:53;7.40;;;5.07;;
48522;SDS011;34315;50.150;11.070;2022-07-30T08:12:54;7.93;;;5.35;;
48522;SDS011;34315;50.150;11.070;2022-07-30T08:18:13;9.30;;;5.82;;
48522;SDS011;34315;50.150;11.070;2022-07-30T08:23:23;8.50;;;4.85;;
48522;SDS011;34315;50.150;11.070;2022-07-30T08:28:24;8.45;;;5.65;;
48522;SDS011;34315;50.150;11.070;2022-07-30T08:33:25;7.13;;;5.05;;
48522;SDS011;34315;50.150;11.070;2022-07-30T08:38:26;8.02;;;5.30;;
48522;SDS011;34315;50.150;11.070;2022-07-30T08:43:26;6.20;;;5.07;;
48522;SDS011;34315;50.150;11.070;2022-07-30T08:48:29;5.60;;;4.53;;
48522;SDS011;34315;50.150;11.070;2022-07-30T08:53:31;6.97;;;4.68;;
48522;SDS011;34315;50.150;11.070;2022-07-30T08:58:33;7.55;;;4.63;;
48522;SDS011;34315;50.150;11.070;2022-07-30T09:03:35;6.65;;;4.80;;
48522;SDS011;34315;50.150;11.070;2022-07-30T09:08:36;6.38;;;4.40;;
48522;SDS011;34315;50.150;11.070;2022-07-30T09:13:38;6.85;;;4.45;;
48522;SDS011;34315;50.150;11.070;2022-07-30T09:18:40;6.33;;;4.37;;
48522;SDS011;34315;50.150;11.070;2022-07-30T09:29:25;6.00;;;4.00;;
48522;SDS011;34315;50.150;11.070;2022-07-30T09:34:45;4.75;;;3.65;;
48522;SDS011;34315;50.150;11.070;2022-07-30T09:40:09;8.07;;;3.67;;
48522;SDS011;34315;50.150;11.070;2022-07-30T09:45:33;4.00;;;3.42;;
48522;SDS011;34315;50.150;11.070;2022-07-30T09:50:33;6.18;;;3.65;;
48522;SDS011;34315;50.150;11.070;2022-07-30T09:55:35;4.60;;;3.28;;
48522;SDS011;34315;50.150;11.070;2022-07-30T10:00:36;4.68;;;3.30;;
48522;SDS011;34315;50.150;11.070;2022-07-30T10:05:53;5.65;;;3.80;;
48522;SDS011;34315;50.150;11.070;2022-07-30T10:10:56;5.80;;;3.55;;
48522;SDS011;34315;50.150;11.070;2022-07-30T10:15:57;5.82;;;3.20;;
48522;SDS011;34315;50.150;11.070;2022-07-30T10:20:59;6.60;;;3.63;;
48522;SDS011;34315;50.150;11.070;2022-07-30T10:26:19;4.97;;;3.33;;
48522;SDS011;34315;50.150;11.070;2022-07-30T10:31:38;4.50;;;3.42;;
48522;SDS011;34315;50.150;11.070;2022-07-30T10:36:40;5.10;;;3.40;;
48522;SDS011;34315;50.150;11.070;2022-07-30T10:47:20;4.70;;;3.03;;
48522;SDS011;34315;50.150;11.070;2022-07-30T10:58:03;7.20;;;3.00;;
48522;SDS011;34315;50.150;11.070;2022-07-30T11:08:29;6.28;;;2.88;;
48522;SDS011;34315;50.150;11.070;2022-07-30T11:13:47;7.40;;;2.72;;
48522;SDS011;34315;50.150;11.070;2022-07-30T11:19:09;4.10;;;2.55;;
48522;SDS011;34315;50.150;11.070;2022-07-30T11:29:41;6.18;;;2.88;;
48522;SDS011;34315;50.150;11.070;2022-07-30T11:34:41;6.18;;;2.85;;
48522;SDS011;34315;50.150;11.070;2022-07-30T11:50:31;9.02;;;3.05;;
48522;SDS011;34315;50.150;11.070;2022-07-30T11:55:37;4.63;;;2.63;;
48522;SDS011;34315;50.150;11.070;2022-07-30T12:00:39;13.35;;;2.95;;
48522;SDS011;34315;50.150;11.070;2022-07-30T12:05:41;5.45;;;2.65;;
48522;SDS011;34315;50.150;11.070;2022-07-30T12:10:43;3.70;;;2.42;;
48522;SDS011;34315;50.150;11.070;2022-07-30T12:15:45;3.55;;;2.75;;
48522;SDS011;34315;50.150;11.070;2022-07-30T12:20:51;6.45;;;2.90;;
48522;SDS011;34315;50.150;11.070;2022-07-30T12:25:53;5.03;;;2.80;;
48522;SDS011;34315;50.150;11.070;2022-07-30T12:30:54;8.85;;;3.08;;
48522;SDS011;34315;50.150;11.070;2022-07-30T12:35:56;5.82;;;3.05;;
48522;SDS011;34315;50.150;11.070;2022-07-30T12:41:02;4.25;;;2.80;;
48522;SDS011;34315;50.150;11.070;2022-07-30T12:46:03;4.32;;;3.20;;
48522;SDS011;34315;50.150;11.070;2022-07-30T12:51:07;4.38;;;2.80;;
48522;SDS011;34315;50.150;11.070;2022-07-30T12:56:09;4.13;;;2.85;;
48522;SDS011;34315;50.150;11.070;2022-07-30T13:01:37;4.05;;;2.30;;
48522;SDS011;34315;50.150;11.070;2022-07-30T13:07:08;5.10;;;2.42;;
48522;SDS011;34315;50.150;11.070;2022-07-30T13:12:12;3.92;;;2.63;;
48522;SDS011;34315;50.150;11.070;2022-07-30T13:17:14;4.50;;;3.00;;
48522;SDS011;34315;50.150;11.070;2022-07-30T13:22:14;5.15;;;3.30;;
48522;SDS011;34315;50.150;11.070;2022-07-30T13:27:15;6.10;;;3.38;;
48522;SDS011;34315;50.150;11.070;2022-07-30T13:32:16;6.55;;;4.47;;
48522;SDS011;34315;50.150;11.070;2022-07-30T13:37:16;5.28;;;3.17;;
48522;SDS011;34315;50.150;11.070;2022-07-30T13:42:16;6.30;;;2.97;;
48522;SDS011;34315;50.150;11.070;2022-07-30T13:47:17;3.97;;;3.10;;
48522;SDS011;34315;50.150;11.070;2022-07-30T13:52:17;4.85;;;3.40;;
48522;SDS011;34315;50.150;11.070;2022-07-30T13:57:18;6.90;;;3.10;;
48522;SDS011;34315;50.150;11.070;2022-07-30T14:02:19;5.28;;;3.20;;
48522;SDS011;34315;50.150;11.070;2022-07-30T14:07:19;4.90;;;3.50;;
48522;SDS011;34315;50.150;11.070;2022-07-30T14:12:19;6.10;;;3.50;;
48522;SDS011;34315;50.150;11.070;2022-07-30T14:17:20;4.30;;;2.90;;
48522;SDS011;34315;50.150;11.070;2022-07-30T14:22:20;5.28;;;2.83;;
48522;SDS011;34315;50.150;11.070;2022-07-30T14:27:21;3.70;;;2.83;;
48522;SDS011;34315;50.150;11.070;2022-07-30T14:32:22;5.15;;;3.60;;
48522;SDS011;34315;50.150;11.070;2022-07-30T14:37:23;5.22;;;3.00;;
48522;SDS011;34315;50.150;11.070;2022-07-30T14:42:23;6.38;;;2.92;;
48522;SDS011;34315;50.150;11.070;2022-07-30T14:47:24;6.05;;;2.80;;
48522;SDS011;34315;50.150;11.070;2022-07-30T14:52:24;4.20;;;2.90;;
48522;SDS011;34315;50.150;11.070;2022-07-30T14:57:25;5.20;;;3.20;;
48522;SDS011;34315;50.150;11.070;2022-07-30T15:02:25;4.85;;;3.58;;
48522;SDS011;34315;50.150;11.070;2022-07-30T15:07:26;4.25;;;2.60;;
48522;SDS011;34315;50.150;11.070;2022-07-30T15:12:26;4.15;;;2.90;;
48522;SDS011;34315;50.150;11.070;2022-07-30T15:17:27;4.68;;;2.55;;
48522;SDS011;34315;50.150;11.070;2022-07-30T15:22:27;5.05;;;2.70;;
48522;SDS011;34315;50.150;11.070;2022-07-30T15:27:27;6.40;;;3.03;;
48522;SDS011;34315;50.150;11.070;2022-07-30T15:32:28;4.78;;;2.60;;
48522;SDS011;34315;50.150;11.070;2022-07-30T15:37:28;4.88;;;2.85;;
48522;SDS011;34315;50.150;11.070;2022-07-30T15:42:29;5.55;;;2.75;;
48522;SDS011;34315;50.150;11.070;2022-07-30T15:47:30;3.50;;;2.90;;
48522;SDS011;34315;50.150;11.070;2022-07-30T15:52:30;4.72;;;2.72;;
48522;SDS011;34315;50.150;11.070;2022-07-30T15:57:31;5.93;;;3.10;;
48522;SDS011;34315;50.150;11.070;2022-07-30T16:02:31;5.50;;;3.15;;
48522;SDS011;34315;50.150;11.070;2022-07-30T16:07:32;5.63;;;2.70;;
48522;SDS011;34315;50.150;11.070;2022-07-30T16:12:32;4.18;;;3.05;;
48522;SDS011;34315;50.150;11.070;2022-07-30T16:17:33;5.20;;;3.03;;
48522;SDS011;34315;50.150;11.070;2022-07-30T16:22:33;5.53;;;2.95;;
48522;SDS011;34315;50.150;11.070;2022-07-30T16:27:34;4.28;;;2.88;;
48522;SDS011;34315;50.150;11.070;2022-07-30T16:32:35;7.28;;;5.45;;
48522;SDS011;34315;50.150;11.070;2022-07-30T16:37:35;8.30;;;3.20;;
48522;SDS011;34315;50.150;11.070;2022-07-30T16:42:35;4.55;;;2.80;;
48522;SDS011;34315;50.150;11.070;2022-07-30T16:47:36;4.93;;;2.80;;
48522;SDS011;34315;50.150;11.070;2022-07-30T16:52:36;5.35;;;3.05;;
48522;SDS011;34315;50.150;11.070;2022-07-30T16:57:37;5.35;;;3.50;;
48522;SDS011;34315;50.150;11.070;2022-07-30T17:02:37;5.80;;;3.30;;
48522;SDS011;34315;50.150;11.070;2022-07-30T17:07:38;9.15;;;4.60;;
48522;SDS011;34315;50.150;11.070;2022-07-30T17:12:38;5.10;;;3.33;;
48522;SDS011;34315;50.150;11.070;2022-07-30T17:17:38;5.25;;;4.18;;
48522;SDS011;34315;50.150;11.070;2022-07-30T17:22:39;5.70;;;3.92;;
48522;SDS011;34315;50.150;11.070;2022-07-30T17:27:39;6.22;;;3.28;;
48522;SDS011;34315;50.150;11.070;2022-07-30T17:32:40;5.57;;;3.80;;
48522;SDS011;34315;50.150;11.070;2022-07-30T17:37:40;6.00;;;3.10;;
48522;SDS011;34315;50.150;11.070;2022-07-30T17:42:41;5.45;;;3.45;;
48522;SDS011;34315;50.150;11.070;2022-07-30T17:47:44;5.70;;;4.13;;
48522;SDS011;34315;50.150;11.070;2022-07-30T17:52:44;4.82;;;3.53;;
48522;SDS011;34315;50.150;11.070;2022-07-30T17:57:45;6.43;;;3.42;;
48522;SDS011;34315;50.150;11.070;2022-07-30T18:02:45;5.32;;;3.20;;
48522;SDS011;34315;50.150;11.070;2022-07-30T18:07:46;4.55;;;2.83;;
48522;SDS011;34315;50.150;11.070;2022-07-30T18:12:46;5.45;;;2.80;;
48522;SDS011;34315;50.150;11.070;2022-07-30T18:17:47;4.65;;;3.10;;
48522;SDS011;34315;50.150;11.070;2022-07-30T18:22:47;6.38;;;2.97;;
48522;SDS011;34315;50.150;11.070;2022-07-30T18:27:48;4.57;;;3.38;;
48522;SDS011;34315;50.150;11.070;2022-07-30T18:32:50;4.07;;;3.03;;
48522;SDS011;34315;50.150;11.070;2022-07-30T18:37:50;7.38;;;3.38;;
48522;SDS011;34315;50.150;11.070;2022-07-30T18:42:51;6.40;;;3.47;;
48522;SDS011;34315;50.150;11.070;2022-07-30T18:47:51;4.53;;;3.15;;
48522;SDS011;34315;50.150;11.070;2022-07-30T18:52:52;6.30;;;3.40;;
48522;SDS011;34315;50.150;11.070;2022-07-30T18:57:53;5.70;;;3.72;;
48522;SDS011;34315;50.150;11.070;2022-07-30T19:02:53;4.75;;;3.33;;
48522;SDS011;34315;50.150;11.070;2022-07-30T19:07:53;7.00;;;3.53;;
48522;SDS011;34315;50.150;11.070;2022-07-30T19:12:54;5.15;;;3.10;;
48522;SDS011;34315;50.150;11.070;2022-07-30T19:17:55;5.20;;;3.88;;
48522;SDS011;34315;50.150;11.070;2022-07-30T19:23:00;5.85;;;4.03;;
48522;SDS011;34315;50.150;11.070;2022-07-30T19:28:02;5.75;;;4.32;;
48522;SDS011;34315;50.150;11.070;2022-07-30T19:33:07;4.50;;;3.40;;
48522;SDS011;34315;50.150;11.070;2022-07-30T19:38:09;4.20;;;3.38;;
48522;SDS011;34315;50.150;11.070;2022-07-30T19:43:10;6.93;;;4.10;;
48522;SDS011;34315;50.150;11.070;2022-07-30T19:48:10;4.95;;;3.70;;
48522;SDS011;34315;50.150;11.070;2022-07-30T19:53:11;4.80;;;3.58;;
48522;SDS011;34315;50.150;11.070;2022-07-30T19:58:11;7.28;;;3.90;;
48522;SDS011;34315;50.150;11.070;2022-07-30T20:03:16;5.75;;;3.72;;
48522;SDS011;34315;50.150;11.070;2022-07-30T20:08:17;4.97;;;3.50;;
48522;SDS011;34315;50.150;11.070;2022-07-30T20:13:18;4.75;;;3.50;;
48522;SDS011;34315;50.150;11.070;2022-07-30T20:18:19;6.45;;;3.88;;
48522;SDS011;34315;50.150;11.070;2022-07-30T20:23:19;8.10;;;4.97;;
48522;SDS011;34315;50.150;11.070;2022-07-30T20:28:20;5.88;;;4.15;;
48522;SDS011;34315;50.150;11.070;2022-07-30T20:33:20;5.70;;;3.90;;
48522;SDS011;34315;50.150;11.070;2022-07-30T20:38:21;6.20;;;4.10;;
48522;SDS011;34315;50.150;11.070;2022-07-30T20:43:21;6.47;;;4.38;;
48522;SDS011;34315;50.150;11.070;2022-07-30T20:48:21;6.88;;;5.40;;
48522;SDS011;34315;50.150;11.070;2022-07-30T20:53:24;7.43;;;4.90;;
48522;SDS011;34315;50.150;11.070;2022-07-30T20:58:25;7.22;;;5.53;;
48522;SDS011;34315;50.150;11.070;2022-07-30T21:03:25;6.43;;;4.80;;
48522;SDS011;34315;50.150;11.070;2022-07-30T21:08:26;4.97;;;4.15;;
48522;SDS011;34315;50.150;11.070;2022-07-30T21:13:26;8.85;;;4.60;;
48522;SDS011;34315;50.150;11.070;2022-07-30T21:18:27;6.57;;;4.50;;
48522;SDS011;34315;50.150;11.070;2022-07-30T21:23:27;6.28;;;3.83;;
48522;SDS011;34315;50.150;11.070;2022-07-30T21:28:28;5.68;;;4.20;;
48522;SDS011;34315;50.150;11.070;2022-07-30T21:33:29;5.43;;;4.28;;
48522;SDS011;34315;50.150;11.070;2022-07-30T21:38:29;6.13;;;4.93;;
48522;SDS011;34315;50.150;11.070;2022-07-30T21:43:30;6.93;;;5.03;;
48522;SDS011;34315;50.150;11.070;2022-07-30T21:48:31;6.50;;;5.20;;
48522;SDS011;34315;50.150;11.070;2022-07-30T21:53:31;7.53;;;5.68;;
48522;SDS011;34315;50.150;11.070;2022-07-30T21:58:32;24.13;;;13.13;;
48522;SDS011;34315;50.150;11.070;2022-07-30T22:03:33;11.38;;;6.97;;
48522;SDS011;34315;50.150;11.070;2022-07-30T22:08:34;8.00;;;5.30;;
48522;SDS011;34315;50.150;11.070;2022-07-30T22:13:34;5.22;;;3.72;;
48522;SDS011;34315;50.150;11.070;2022-07-30T22:18:35;5.80;;;4.00;;
48522;SDS011;34315;50.150;11.070;2022-07-30T22:23:35;7.35;;;4.05;;
48522;SDS011;34315;50.150;11.070;2022-07-30T22:28:36;5.55;;;4.47;;
48522;SDS011;34315;50.150;11.070;2022-07-30T22:33:37;8.38;;;4.43;;
48522;SDS011;34315;50.150;11.070;2022-07-30T22:38:37;7.38;;;4.55;;
48522;SDS011;34315;50.150;11.070;2022-07-30T22:43:38;5.47;;;3.85;;
48522;SDS011;34315;50.150;11.070;2022-07-30T22:48:38;5.30;;;4.32;;
48522;SDS011;34315;50.150;11.070;2022-07-30T22:53:39;4.90;;;4.10;;
48522;SDS011;34315;50.150;11.070;2022-07-30T22:58:39;6.30;;;4.35;;
48522;SDS011;34315;50.150;11.070;2022-07-30T23:03:39;7.53;;;4.30;;
48522;SDS011;34315;50.150;11.070;2022-07-30T23:08:40;6.97;;;4.20;;
48522;SDS011;34315;50.150;11.070;2022-07-30T23:13:41;6.07;;;4.30;;
48522;SDS011;34315;50.150;11.070;2022-07-30T23:18:42;5.85;;;3.90;;
48522;SDS011;34315;50.150;11.070;2022-07-30T23:23:43;5.68;;;4.07;;
48522;SDS011;34315;50.150;11.070;2022-07-30T23:28:44;5.35;;;4.30;;
48522;SDS011;34315;50.150;11.070;2022-07-30T23:33:44;7.10;;;4.22;;
48522;SDS011;34315;50.150;11.070;2022-07-30T23:38:44;7.70;;;4.75;;
48522;SDS011;34315;50.150;11.070;2022-07-30T23:43:45;6.80;;;4.60;;
48522;SDS011;34315;50.150;11.070;2022-07-30T23:48:45;5.82;;;4.22;;
48522;SDS011;34315;50.150;11.070;2022-07-30T23:53:46;5.43;;;4.20;;
48522;SDS011;34315;50.150;11.070;2022-07-30T23:58:46;6.15;;;4.57;;
